createdAt,value
2022-08-18T00:02:18.377Z,7.82
2022-08-18T00:04:49.550Z,8.68
2022-08-18T00:07:24.119Z,8.50
2022-08-18T00:09:52.642Z,8.63
2022-08-18T00:12:32.776Z,8.25
2022-08-18T00:15:03.690Z,8.15
2022-08-18T00:17:34.807Z,8.48
2022-08-18T00:20:05.154Z,8.13
2022-08-18T00:22:33.548Z,8.05
2022-08-18T00:25:02.014Z,8.35
2022-08-18T00:27:32.371Z,7.75
2022-08-18T00:30:04.814Z,8.05
2022-08-18T00:32:44.513Z,7.93
2022-08-18T00:35:20.959Z,8.38
2022-08-18T00:37:50.434Z,8.35
2022-08-18T00:40:23.213Z,8.40
2022-08-18T00:42:58.062Z,8.50
2022-08-18T00:45:32.829Z,7.57
2022-08-18T00:48:02.500Z,7.85
2022-08-18T00:50:38.210Z,9.02
2022-08-18T00:53:21.511Z,9.18
2022-08-18T00:55:54.154Z,9.23
2022-08-18T00:58:29.415Z,9.48
2022-08-18T01:01:03.032Z,9.80
2022-08-18T01:03:36.322Z,10.50
2022-08-18T01:06:14.548Z,10.63
2022-08-18T01:08:43.002Z,10.10
2022-08-18T01:11:11.501Z,11.18
2022-08-18T01:13:42.673Z,11.20
2022-08-18T01:16:29.000Z,10.68
2022-08-18T01:19:16.636Z,11.07
2022-08-18T01:21:52.178Z,10.45
2022-08-18T01:24:46.572Z,11.73
2022-08-18T01:27:18.603Z,10.98
2022-08-18T01:29:48.622Z,10.85
2022-08-18T01:32:20.352Z,11.33
2022-08-18T01:34:53.625Z,11.82
2022-08-18T01:37:26.388Z,10.18
2022-08-18T01:41:17.550Z,10.52
2022-08-18T01:42:46.557Z,11.38
2022-08-18T01:45:18.086Z,11.25
2022-08-18T01:47:48.027Z,11.98
2022-08-18T01:52:46.195Z,10.85
2022-08-18T01:55:19.785Z,9.65
2022-08-18T01:57:48.164Z,10.48
2022-08-18T02:00:19.813Z,10.65
2022-08-18T02:03:01.673Z,10.48
2022-08-18T02:05:36.722Z,10.25
2022-08-18T02:08:08.411Z,10.02
2022-08-18T02:10:38.635Z,9.93
2022-08-18T02:13:07.522Z,11.13
2022-08-18T02:15:36.368Z,11.68
2022-08-18T02:18:04.745Z,11.05
2022-08-18T02:20:33.081Z,12.38
2022-08-18T02:23:03.378Z,11.98
2022-08-18T02:25:33.104Z,10.55
2022-08-18T02:28:02.809Z,10.23
2022-08-18T02:30:31.247Z,11.37
2022-08-18T02:32:59.660Z,12.18
2022-08-18T02:35:28.167Z,11.35
2022-08-18T02:37:57.968Z,11.88
2022-08-18T02:40:28.268Z,11.55
2022-08-18T02:42:56.964Z,11.48
2022-08-18T02:45:26.665Z,11.30
2022-08-18T02:47:56.369Z,11.63
2022-08-18T02:50:25.134Z,8.93
2022-08-18T02:52:54.246Z,8.95
2022-08-18T02:55:22.693Z,8.30
2022-08-18T02:57:51.175Z,7.78
2022-08-18T03:00:20.680Z,8.45
2022-08-18T03:02:52.074Z,7.80
2022-08-18T03:05:20.585Z,8.32
2022-08-18T03:07:50.376Z,8.45
2022-08-18T03:10:32.545Z,7.85
2022-08-18T03:13:02.680Z,8.85
2022-08-18T03:15:31.009Z,8.02
2022-08-18T03:18:02.138Z,8.45
2022-08-18T03:20:31.628Z,9.30
2022-08-18T03:23:04.739Z,10.05
2022-08-18T03:25:34.489Z,10.13
2022-08-18T03:28:04.449Z,11.23
2022-08-18T03:30:32.735Z,12.15
2022-08-18T03:33:02.383Z,16.00
2022-08-18T03:35:31.103Z,16.87
2022-08-18T03:38:00.835Z,15.40
2022-08-18T03:40:29.558Z,14.53
2022-08-18T03:42:57.928Z,13.70
2022-08-18T03:45:31.967Z,14.23
2022-08-18T03:48:02.276Z,13.80
2022-08-18T03:50:32.329Z,15.90
2022-08-18T03:53:00.656Z,17.90
2022-08-18T03:55:29.634Z,17.20
2022-08-18T03:58:03.518Z,19.20
2022-08-18T04:00:33.655Z,19.90
2022-08-18T04:03:04.527Z,18.65
2022-08-18T04:05:34.315Z,18.02
2022-08-18T04:08:04.808Z,17.90
2022-08-18T04:10:33.396Z,18.27
2022-08-18T04:13:02.659Z,19.73
2022-08-18T04:15:30.929Z,19.45
2022-08-18T04:18:04.482Z,20.15
2022-08-18T04:20:33.722Z,20.45
2022-08-18T04:23:02.995Z,20.27
2022-08-18T04:25:33.478Z,19.08
2022-08-18T04:30:32.308Z,20.02
2022-08-18T04:33:06.408Z,20.15
2022-08-18T04:35:38.936Z,19.88
2022-08-18T04:38:07.493Z,18.90
2022-08-18T04:40:35.744Z,19.35
2022-08-18T04:43:04.093Z,20.10
2022-08-18T04:45:32.397Z,20.88
2022-08-18T04:48:00.674Z,19.58
2022-08-18T04:50:30.215Z,19.52
2022-08-18T04:53:16.131Z,19.45
2022-08-18T04:55:49.506Z,22.67
2022-08-18T04:58:18.727Z,21.95
2022-08-18T05:00:47.342Z,21.10
2022-08-18T05:03:15.934Z,19.10
2022-08-18T05:05:45.607Z,19.98
2022-08-18T05:08:13.966Z,18.37
2022-08-18T05:10:42.240Z,18.20
2022-08-18T05:13:10.519Z,17.65
2022-08-18T05:16:07.022Z,16.80
2022-08-18T05:18:28.591Z,17.97
2022-08-18T05:21:00.079Z,18.13
2022-08-18T05:23:31.589Z,20.13
2022-08-18T05:26:02.209Z,15.95
2022-08-18T05:31:00.397Z,16.10
2022-08-18T05:33:29.297Z,16.88
2022-08-18T05:36:06.034Z,16.40
2022-08-18T05:38:44.981Z,16.38
2022-08-18T05:41:21.893Z,15.23
2022-08-18T05:43:51.844Z,15.68
2022-08-18T05:46:23.497Z,17.23
2022-08-18T05:48:52.049Z,17.33
2022-08-18T05:51:30.352Z,19.52
2022-08-18T05:54:16.390Z,21.67
2022-08-18T05:56:49.483Z,19.52
2022-08-18T05:59:24.155Z,20.13
2022-08-18T06:02:00.366Z,18.20
2022-08-18T06:04:43.073Z,18.63
2022-08-18T06:07:18.727Z,17.13
2022-08-18T06:09:51.688Z,17.08
2022-08-18T06:12:29.165Z,16.45
2022-08-18T06:15:06.684Z,16.95
2022-08-18T06:18:05.287Z,16.25
2022-08-18T06:20:47.856Z,15.52
2022-08-18T06:23:28.942Z,14.52
2022-08-18T06:26:12.466Z,15.27
2022-08-18T06:29:02.628Z,14.88
2022-08-18T06:31:41.835Z,15.38
2022-08-18T06:34:21.791Z,14.00
2022-08-18T06:36:55.702Z,14.98
2022-08-18T06:39:33.907Z,14.18
2022-08-18T06:42:05.958Z,13.70
2022-08-18T06:44:39.815Z,12.43
2022-08-18T06:47:18.405Z,13.68
2022-08-18T06:49:54.920Z,14.77
2022-08-18T06:52:29.117Z,11.80
2022-08-18T06:55:01.149Z,11.30
2022-08-18T06:57:34.982Z,9.57
2022-08-18T07:00:11.259Z,9.05
2022-08-18T07:02:49.989Z,10.02
2022-08-18T07:05:26.624Z,10.30
2022-08-18T07:08:18.615Z,10.30
2022-08-18T07:10:51.519Z,8.77
2022-08-18T07:13:26.264Z,8.52
2022-08-18T07:15:57.098Z,8.95
2022-08-18T07:18:30.316Z,8.40
2022-08-18T07:21:01.701Z,8.98
2022-08-18T07:23:35.072Z,7.78
2022-08-18T07:26:11.308Z,16.45
2022-08-18T07:28:44.230Z,10.30
2022-08-18T07:31:37.701Z,9.40
2022-08-18T07:34:13.232Z,7.38
2022-08-18T07:36:48.685Z,7.35
2022-08-18T07:39:24.515Z,5.90
2022-08-18T07:42:00.266Z,6.93
2022-08-18T07:44:44.300Z,5.72
2022-08-18T07:47:18.908Z,6.15
2022-08-18T07:50:16.493Z,5.43
2022-08-18T07:52:47.042Z,5.32
2022-08-18T07:55:28.936Z,5.43
2022-08-18T07:58:18.717Z,6.53
2022-08-18T08:00:59.422Z,5.90
2022-08-18T08:03:43.811Z,5.30
2022-08-18T08:06:21.967Z,5.05
2022-08-18T08:09:00.833Z,5.22
2022-08-18T08:11:44.528Z,5.50
2022-08-18T08:14:37.319Z,4.35
2022-08-18T08:17:17.228Z,4.50
2022-08-18T08:20:12.631Z,4.68
2022-08-18T08:22:54.564Z,5.30
2022-08-18T08:25:45.798Z,4.60
2022-08-18T08:28:28.003Z,4.03
2022-08-18T08:31:33.059Z,3.83
2022-08-18T08:34:08.591Z,3.75
2022-08-18T08:36:41.160Z,4.43
2022-08-18T08:39:18.773Z,3.53
2022-08-18T08:41:53.718Z,4.20
2022-08-18T08:44:58.747Z,3.95
2022-08-18T08:47:33.980Z,3.83
2022-08-18T08:50:07.083Z,4.22
2022-08-18T08:52:43.281Z,4.15
2022-08-18T08:55:26.417Z,3.92
2022-08-18T08:58:02.120Z,4.10
2022-08-18T09:00:31.282Z,3.88
2022-08-18T09:03:30.777Z,3.92
2022-08-18T09:06:15.269Z,3.47
2022-08-18T09:09:08.941Z,8.68
2022-08-18T09:12:02.644Z,13.77
2022-08-18T09:15:05.856Z,3.83
2022-08-18T09:17:56.217Z,3.22
2022-08-18T09:20:57.126Z,3.42
2022-08-18T09:23:29.836Z,3.03
2022-08-18T09:26:01.117Z,2.95
2022-08-18T09:28:58.826Z,3.00
2022-08-18T09:31:31.813Z,2.85
2022-08-18T09:34:26.332Z,2.90
2022-08-18T09:37:19.306Z,3.40
2022-08-18T09:40:51.441Z,3.33
2022-08-18T09:43:30.523Z,3.33
2022-08-18T09:46:04.781Z,3.28
2022-08-18T09:48:35.811Z,3.05
2022-08-18T09:51:39.785Z,3.13
2022-08-18T09:54:20.739Z,3.55
2022-08-18T09:57:20.742Z,4.03
2022-08-18T10:00:33.487Z,3.38
2022-08-18T10:03:26.072Z,3.72
2022-08-18T10:09:36.855Z,3.55
2022-08-18T10:12:23.318Z,3.70
2022-08-18T10:15:49.338Z,3.20
2022-08-18T10:18:43.260Z,3.33
2022-08-18T10:21:23.007Z,3.60
2022-08-18T10:24:15.174Z,3.72
2022-08-18T10:27:36.664Z,3.15
2022-08-18T10:34:19.175Z,3.47
2022-08-18T10:36:52.779Z,3.10
2022-08-18T10:39:24.813Z,3.60
2022-08-18T10:42:08.058Z,3.50
2022-08-18T10:44:45.445Z,3.85
2022-08-18T10:47:24.909Z,4.15
2022-08-18T10:49:55.100Z,4.07
2022-08-18T10:53:10.174Z,3.63
2022-08-18T10:55:56.992Z,3.67
2022-08-18T10:59:04.376Z,3.55
2022-08-18T11:01:48.858Z,3.20
2022-08-18T11:07:23.936Z,3.63
2022-08-18T11:13:08.795Z,3.28
2022-08-18T11:15:56.337Z,3.65
2022-08-18T11:18:36.290Z,3.13
2022-08-18T11:21:34.215Z,3.50
2022-08-18T11:24:16.867Z,3.30
2022-08-18T11:29:40.404Z,3.50
2022-08-18T11:32:12.723Z,5.50
2022-08-18T11:34:45.782Z,3.13
2022-08-18T11:37:48.495Z,2.97
2022-08-18T11:43:29.963Z,3.20
2022-08-18T11:46:30.260Z,2.90
2022-08-18T11:49:02.134Z,2.92
2022-08-18T11:51:34.937Z,3.05
2022-08-18T11:57:46.779Z,3.00
2022-08-18T12:00:43.142Z,2.88
2022-08-18T12:03:23.941Z,3.25
2022-08-18T12:05:58.755Z,3.30
2022-08-18T12:11:30.013Z,3.35
2022-08-18T12:14:31.922Z,3.42
2022-08-18T12:16:54.457Z,3.05
2022-08-18T12:19:25.061Z,3.60
2022-08-18T12:21:58.390Z,3.47
2022-08-18T12:24:36.571Z,3.10
2022-08-18T12:27:21.007Z,3.40
2022-08-18T12:29:53.192Z,3.20
2022-08-18T12:35:13.148Z,3.10
2022-08-18T12:40:33.155Z,2.60
2022-08-18T12:43:02.592Z,3.10
2022-08-18T12:45:32.628Z,3.03
2022-08-18T12:48:04.005Z,2.60
2022-08-18T12:50:37.553Z,3.03
2022-08-18T12:53:08.070Z,3.08
2022-08-18T12:55:43.643Z,2.78
2022-08-18T12:58:14.069Z,2.97
2022-08-18T13:00:44.825Z,3.00
2022-08-18T13:03:13.126Z,3.15
2022-08-18T13:05:41.493Z,3.13
2022-08-18T13:08:30.504Z,2.90
2022-08-18T13:11:14.491Z,3.45
2022-08-18T13:13:53.307Z,3.20
2022-08-18T13:16:30.855Z,3.20
2022-08-18T13:19:10.954Z,3.33
2022-08-18T13:21:41.357Z,2.80
2022-08-18T13:26:45.794Z,3.33
2022-08-18T13:29:17.579Z,3.45
2022-08-18T13:31:56.004Z,3.35
2022-08-18T13:34:29.970Z,3.05
2022-08-18T13:36:58.860Z,3.53
2022-08-18T13:39:34.142Z,2.92
2022-08-18T13:42:26.292Z,3.28
2022-08-18T13:44:55.078Z,3.10
2022-08-18T13:47:29.206Z,3.08
2022-08-18T13:49:59.860Z,3.38
2022-08-18T13:52:34.903Z,3.15
2022-08-18T13:55:07.983Z,3.20
2022-08-18T13:57:38.441Z,3.50
2022-08-18T14:00:18.433Z,3.22
2022-08-18T14:02:53.547Z,3.50
2022-08-18T14:05:36.367Z,3.33
2022-08-18T14:08:11.124Z,3.45
2022-08-18T14:10:50.638Z,3.50
2022-08-18T14:13:25.092Z,3.55
2022-08-18T14:15:56.312Z,3.30
2022-08-18T14:18:30.831Z,3.47
2022-08-18T14:21:22.902Z,3.50
2022-08-18T14:24:10.681Z,3.35
2022-08-18T14:26:50.519Z,3.60
2022-08-18T14:29:45.838Z,3.63
2022-08-18T14:32:08.629Z,3.42
2022-08-18T14:34:50.608Z,3.42
2022-08-18T14:37:20.110Z,3.30
2022-08-18T14:39:50.365Z,3.83
2022-08-18T14:42:41.354Z,3.53
2022-08-18T14:45:17.851Z,3.80
2022-08-18T14:47:56.876Z,3.83
2022-08-18T14:50:28.463Z,3.27
2022-08-18T14:52:56.782Z,3.40
2022-08-18T14:57:58.561Z,3.60
2022-08-18T15:00:29.184Z,3.63
2022-08-18T15:02:59.838Z,3.35
2022-08-18T15:05:33.729Z,3.65
2022-08-18T15:08:04.719Z,3.60
2022-08-18T15:10:33.921Z,3.97
2022-08-18T15:13:02.495Z,3.90
2022-08-18T15:15:50.643Z,3.60
2022-08-18T15:18:22.258Z,3.60
2022-08-18T15:21:19.744Z,3.90
2022-08-18T15:24:20.153Z,4.13
2022-08-18T15:26:51.507Z,3.70
2022-08-18T15:29:22.595Z,4.10
2022-08-18T15:32:02.220Z,3.85
2022-08-18T15:34:46.935Z,3.63
2022-08-18T15:37:24.450Z,3.90
2022-08-18T15:40:05.625Z,3.58
2022-08-18T15:42:33.988Z,3.70
2022-08-18T15:45:11.514Z,3.70
2022-08-18T15:47:41.655Z,3.85
2022-08-18T15:50:25.882Z,3.55
2022-08-18T15:52:59.276Z,3.63
2022-08-18T15:55:29.780Z,4.28
2022-08-18T15:58:10.902Z,3.97
2022-08-18T16:00:46.255Z,3.80
2022-08-18T16:03:16.976Z,3.40
2022-08-18T16:05:53.077Z,3.90
2022-08-18T16:08:25.937Z,4.13
2022-08-18T16:10:55.453Z,3.60
2022-08-18T16:13:26.436Z,3.92
2022-08-18T16:15:54.725Z,4.22
2022-08-18T16:18:22.939Z,3.97
2022-08-18T16:20:52.759Z,5.72
2022-08-18T16:23:26.516Z,4.05
2022-08-18T16:26:01.850Z,3.20
2022-08-18T16:28:34.390Z,4.20
2022-08-18T16:31:04.109Z,4.00
2022-08-18T16:33:32.477Z,3.55
2022-08-18T16:36:05.867Z,3.70
2022-08-18T16:38:37.039Z,3.67
2022-08-18T16:41:11.323Z,3.53
2022-08-18T16:43:44.336Z,3.75
2022-08-18T16:48:43.162Z,3.90
2022-08-18T16:51:19.309Z,3.80
2022-08-18T16:53:52.135Z,3.38
2022-08-18T16:56:23.206Z,4.10
2022-08-18T16:59:10.465Z,3.80
2022-08-18T17:01:57.633Z,3.78
2022-08-18T17:04:29.083Z,3.65
2022-08-18T17:06:58.451Z,4.18
2022-08-18T17:09:28.494Z,3.83
2022-08-18T17:11:56.863Z,3.88
2022-08-18T17:14:28.607Z,3.35
2022-08-18T17:16:58.549Z,3.15
2022-08-18T17:19:31.202Z,3.40
2022-08-18T17:21:59.737Z,3.13
2022-08-18T17:24:31.276Z,3.70
2022-08-18T17:27:21.192Z,3.60
2022-08-18T17:30:03.343Z,3.60
2022-08-18T17:32:42.022Z,3.47
2022-08-18T17:35:15.205Z,3.10
2022-08-18T17:37:52.203Z,3.30
2022-08-18T17:40:29.267Z,3.40
2022-08-18T17:42:59.824Z,3.70
2022-08-18T17:48:04.761Z,3.83
2022-08-18T17:50:56.138Z,3.58
2022-08-18T17:53:25.951Z,3.47
2022-08-18T17:56:03.102Z,4.22
2022-08-18T17:58:40.642Z,4.03
2022-08-18T18:01:11.166Z,3.30
2022-08-18T18:06:20.222Z,3.30
2022-08-18T18:08:55.549Z,3.22
2022-08-18T18:11:32.295Z,3.42
2022-08-18T18:14:02.594Z,3.60
2022-08-18T18:16:35.476Z,3.75
2022-08-18T18:19:07.661Z,3.72
2022-08-18T18:21:53.509Z,3.80
2022-08-18T18:24:33.289Z,3.75
2022-08-18T18:27:03.748Z,3.97
2022-08-18T18:29:38.092Z,3.97
2022-08-18T18:32:26.282Z,3.90
2022-08-18T18:35:27.460Z,3.90
2022-08-18T18:37:58.068Z,3.53
2022-08-18T18:40:34.980Z,3.92
2022-08-18T18:43:25.219Z,4.15
2022-08-18T18:46:24.869Z,3.80
2022-08-18T18:49:16.745Z,4.25
2022-08-18T18:52:00.399Z,4.13
2022-08-18T18:54:50.814Z,4.22
2022-08-18T18:57:31.822Z,4.30
2022-08-18T19:00:18.148Z,4.50
2022-08-18T19:03:03.700Z,4.45
2022-08-18T19:05:39.031Z,3.97
2022-08-18T19:08:24.036Z,5.22
2022-08-18T19:11:00.889Z,4.10
2022-08-18T19:13:35.432Z,4.18
2022-08-18T19:16:23.698Z,4.25
2022-08-18T19:18:57.668Z,5.18
2022-08-18T19:22:04.021Z,5.00
2022-08-18T19:24:42.095Z,5.75
2022-08-18T19:27:23.816Z,5.35
2022-08-18T19:29:57.749Z,5.80
2022-08-18T19:32:39.319Z,5.35
2022-08-18T19:35:13.529Z,5.32
2022-08-18T19:38:07.355Z,5.03
2022-08-18T19:40:45.481Z,5.18
2022-08-18T19:43:24.875Z,6.53
2022-08-18T19:46:02.683Z,5.55
2022-08-18T19:48:43.142Z,5.65
2022-08-18T19:51:23.450Z,4.95
2022-08-18T19:54:25.646Z,5.78
2022-08-18T19:57:11.820Z,4.93
2022-08-18T20:00:18.800Z,4.93
2022-08-18T20:03:33.341Z,4.95
2022-08-18T20:06:34.595Z,4.97
2022-08-18T20:09:44.812Z,4.47
2022-08-18T20:12:37.769Z,4.85
2022-08-18T20:15:16.505Z,4.90
2022-08-18T20:18:08.244Z,5.15
2022-08-18T20:20:39.483Z,4.70
2022-08-18T20:23:34.687Z,5.40
2022-08-18T20:26:03.122Z,5.00
2022-08-18T20:28:40.852Z,5.50
2022-08-18T20:31:14.742Z,5.25
2022-08-18T20:33:48.143Z,5.68
2022-08-18T20:36:37.040Z,5.15
2022-08-18T20:39:41.207Z,5.95
2022-08-18T20:42:43.610Z,4.85
2022-08-18T20:45:30.517Z,5.18
2022-08-18T20:48:17.687Z,5.22
2022-08-18T20:51:09.212Z,4.70
2022-08-18T20:54:17.578Z,6.00
2022-08-18T20:56:54.360Z,6.63
2022-08-18T20:59:30.589Z,6.53
2022-08-18T21:02:02.066Z,7.15
2022-08-18T21:04:52.021Z,8.63
2022-08-18T21:07:36.304Z,7.47
2022-08-18T21:10:13.791Z,7.22
2022-08-18T21:12:52.946Z,7.53
2022-08-18T21:15:26.310Z,7.65
2022-08-18T21:18:03.318Z,8.13
2022-08-18T21:20:32.875Z,9.50
2022-08-18T21:23:12.738Z,9.05
2022-08-18T21:25:53.811Z,7.85
2022-08-18T21:28:27.080Z,9.05
2022-08-18T21:31:42.346Z,8.00
2022-08-18T21:33:52.559Z,7.82
2022-08-18T21:36:25.401Z,8.80
2022-08-18T21:39:03.422Z,9.55
2022-08-18T21:41:34.995Z,8.85
2022-08-18T21:44:08.560Z,9.38
2022-08-18T21:46:37.618Z,10.23
2022-08-18T21:49:06.657Z,10.15
2022-08-18T21:51:46.704Z,10.27
2022-08-18T21:54:19.307Z,10.73
2022-08-18T21:56:48.281Z,9.13
2022-08-18T21:59:20.847Z,9.65
2022-08-18T22:01:51.730Z,12.27
2022-08-18T22:04:28.506Z,11.32
2022-08-18T22:07:00.909Z,12.90
2022-08-18T22:09:53.224Z,12.65
2022-08-18T22:12:51.507Z,14.18
2022-08-18T22:15:24.290Z,13.48
2022-08-18T22:17:57.733Z,13.77
2022-08-18T22:20:49.698Z,13.85
2022-08-18T22:23:54.031Z,14.05
2022-08-18T22:26:27.185Z,12.90
2022-08-18T22:29:02.207Z,12.10
2022-08-18T22:31:35.580Z,11.70
2022-08-18T22:34:07.356Z,11.50
2022-08-18T22:36:38.993Z,11.82
2022-08-18T22:39:12.530Z,11.00
2022-08-18T22:41:41.856Z,9.98
2022-08-18T22:44:10.419Z,11.13
2022-08-18T22:46:40.204Z,11.43
2022-08-18T22:49:08.515Z,10.40
2022-08-18T22:51:37.496Z,9.80
2022-08-18T22:54:08.397Z,9.95
2022-08-18T22:56:37.898Z,9.20
2022-08-18T22:59:15.594Z,6.97
2022-08-18T23:01:51.776Z,7.95
2022-08-18T23:04:24.629Z,8.32
2022-08-18T23:06:53.785Z,7.32
2022-08-18T23:09:24.839Z,7.50
2022-08-18T23:11:56.716Z,8.02
2022-08-18T23:14:25.651Z,7.88
2022-08-18T23:16:55.239Z,9.70
2022-08-18T23:19:23.551Z,6.93
2022-08-18T23:21:52.459Z,9.25
2022-08-18T23:24:22.470Z,11.68
2022-08-18T23:26:50.922Z,11.68
2022-08-18T23:29:21.121Z,12.93
2022-08-18T23:31:51.415Z,11.85
2022-08-18T23:34:27.251Z,10.98
2022-08-18T23:37:00.845Z,11.10
2022-08-18T23:39:31.631Z,11.50
2022-08-18T23:42:00.979Z,11.98
2022-08-18T23:44:30.317Z,13.00
2022-08-18T23:47:00.473Z,12.02
2022-08-18T23:49:31.747Z,11.63
2022-08-18T23:52:01.424Z,10.80
2022-08-18T23:54:33.357Z,10.57
2022-08-18T23:57:02.252Z,12.35
2022-08-18T23:59:30.697Z,10.93
